Time;durP1;ratioP1;P1;durP2;ratioP2;P2;SDS_P1;SDS_P2;PMS_P1;PMS_P2;Temp;Humidity;BMP_temperature;BMP_pressure;BME280_temperature;BME280_humidity;BME280_pressure;Samples;Min_cycle;Max_cycle;Signal;HPM_P1;HPM_P2
2022/10/25 00:02:16;;;;;;;30.77;17.90;;;;;;;0.38;100.00;101675.06;4900906;29;20779;-77
2022/10/25 00:04:41;;;;;;;32.23;17.07;;;;;;;0.39;100.00;101666.28;4900968;29;20360;-76
2022/10/25 00:07:07;;;;;;;36.67;17.87;;;;;;;0.35;100.00;101663.88;4900797;29;20300;-77
2022/10/25 00:09:33;;;;;;;23.13;15.20;;;;;;;0.41;100.00;101679.31;4900631;29;20425;-78
2022/10/25 00:11:58;;;;;;;31.33;16.83;;;;;;;0.39;100.00;101671.53;4883523;29;20115;-77
2022/10/25 00:14:24;;;;;;;29.43;16.70;;;;;;;0.29;100.00;101662.44;4900537;29;20051;-78
2022/10/25 00:16:50;;;;;;;38.87;17.67;;;;;;;0.08;100.00;101621.53;4900696;29;20084;-76
2022/10/25 00:19:15;;;;;;;29.70;17.13;;;;;;;0.36;100.00;101668.22;4900542;29;20024;-77
2022/10/25 00:21:41;;;;;;;28.03;15.37;;;;;;;0.43;100.00;101672.22;4884033;29;20100;-77
2022/10/25 00:24:07;;;;;;;34.93;17.17;;;;;;;0.43;100.00;101666.97;4884424;29;20114;-78
2022/10/25 00:26:33;;;;;;;30.20;17.17;;;;;;;0.44;100.00;101661.66;4901270;29;20032;-78
2022/10/25 00:28:59;;;;;;;31.60;16.00;;;;;;;0.45;100.00;101665.13;4901043;29;20780;-76
2022/10/25 00:31:25;;;;;;;37.10;16.37;;;;;;;0.38;100.00;101655.88;4890617;29;20253;-77
2022/10/25 00:33:52;;;;;;;30.90;16.57;;;;;;;0.44;100.00;101660.81;4913840;29;20060;-76
2022/10/25 00:36:23;;;;;;;30.30;16.37;;;;;;;0.40;100.00;101661.88;4915603;29;20348;-76
2022/10/25 00:38:49;;;;;;;34.07;16.37;;;;;;;0.44;100.00;101663.44;4899840;29;20385;-77
2022/10/25 00:41:18;;;;;;;36.37;17.20;;;;;;;0.41;100.00;101655.72;4902720;29;20283;-76
2022/10/25 00:43:53;;;;;;;30.42;16.38;;;;;;;0.34;100.00;101643.84;4900784;29;20288;-77
2022/10/25 00:46:26;;;;;;;34.10;17.37;;;;;;;0.44;100.00;101658.19;4883271;29;20029;-77
2022/10/25 00:49:07;;;;;;;32.10;15.03;;;;;;;0.44;100.00;101650.31;4900538;29;20271;-77
2022/10/25 00:51:40;;;;;;;33.40;15.87;;;;;;;0.46;100.00;101648.47;4900482;29;20364;-76
2022/10/25 00:54:09;;;;;;;33.07;16.63;;;;;;;0.47;100.00;101648.41;4900764;29;20369;-76
2022/10/25 00:56:37;;;;;;;;;;;;;;;0.55;100.00;101651.47;4903349;29;20331;-78
2022/10/25 00:59:07;;;;;;;30.37;16.67;;;;;;;0.56;100.00;101654.94;4914663;29;19912;-77
2022/10/25 01:01:33;;;;;;;31.53;15.03;;;;;;;0.45;100.00;101633.69;4917193;29;20253;-76
2022/10/25 01:04:03;;;;;;;31.67;17.83;;;;;;;0.54;100.00;101654.19;4916297;29;20387;-76
2022/10/25 01:06:40;;;;;;;38.77;18.30;;;;;;;0.52;100.00;101648.16;4889490;29;20261;-76
2022/10/25 01:09:12;;;;;;;43.67;20.83;;;;;;;0.51;100.00;101646.47;4867592;29;20265;-77
2022/10/25 01:11:40;;;;;;;29.03;18.43;;;;;;;0.47;100.00;101637.91;4899598;29;20371;-77
2022/10/25 01:14:13;;;;;;;32.70;17.33;;;;;;;0.55;100.00;101646.22;4900656;29;20313;-76
2022/10/25 01:17:20;;;;;;;38.53;17.27;;;;;;;0.61;100.00;101652.97;4902343;29;20341;-77
2022/10/25 01:20:03;;;;;;;32.93;16.30;;;;;;;0.61;100.00;101650.34;4901724;29;20305;-78
2022/10/25 01:22:51;;;;;;;30.47;17.07;;;;;;;0.55;100.00;101648.00;4901607;29;20743;-77
2022/10/25 01:25:38;;;;;;;33.70;17.90;;;;;;;0.57;100.00;101651.41;4901495;29;20273;-78
2022/10/25 01:28:17;;;;;;;32.70;16.47;;;;;;;0.55;100.00;101648.00;4900875;29;20285;-77
2022/10/25 01:30:58;;;;;;;29.10;16.07;;;;;;;0.51;100.00;101646.47;4900004;29;20312;-77
2022/10/25 01:33:23;;;;;;;32.07;17.80;;;;;;;0.49;100.00;101643.06;4899630;29;20276;-78
2022/10/25 01:36:07;;;;;;;26.20;16.43;;;;;;;0.48;100.00;101646.63;4899809;29;20745;-76
2022/10/25 01:38:46;;;;;;;61.23;21.20;;;;;;;0.35;100.00;101628.06;4899544;29;20048;-78
2022/10/25 01:41:16;;;;;;;33.20;17.77;;;;;;;0.43;100.00;101639.00;4900056;29;20695;-77
2022/10/25 01:44:06;;;;;;;41.47;19.73;;;;;;;0.44;100.00;101645.09;4899964;29;20265;-76
2022/10/25 01:46:48;;;;;;;38.97;19.37;;;;;;;0.43;100.00;101644.25;4899854;29;20257;-76
2022/10/25 01:49:21;;;;;;;56.43;18.60;;;;;;;0.46;100.00;101643.22;4899083;29;20269;-77
2022/10/25 01:51:46;;;;;;;32.07;18.73;;;;;;;0.46;100.00;101635.38;4898937;29;20654;-77
2022/10/25 01:54:21;;;;;;;35.07;19.97;;;;;;;0.46;100.00;101638.84;4899508;29;20284;-78
2022/10/25 01:57:15;;;;;;;42.33;20.07;;;;;;;0.45;100.00;101647.63;4899429;29;20025;-78
2022/10/25 01:59:58;;;;;;;32.97;18.13;;;;;;;0.44;100.00;101639.84;4875236;29;20360;-77
2022/10/25 02:02:32;;;;;;;38.63;18.07;;;;;;;0.43;100.00;101644.25;4899170;29;20264;-77
2022/10/25 02:05:17;;;;;;;37.47;20.43;;;;;;;0.40;100.00;101640.91;4899572;29;20261;-77
2022/10/25 02:07:53;;;;;;;34.97;18.20;;;;;;;0.37;100.00;101641.09;4899915;29;20257;-77
2022/10/25 02:10:32;;;;;;;33.33;17.70;;;;;;;0.29;100.00;101637.06;4900897;29;20252;-78
2022/10/25 02:13:08;;;;;;;33.75;18.70;;;;;;;0.26;100.00;101636.34;4901755;29;20598;-77
2022/10/25 02:15:40;;;;;;;37.40;17.80;;;;;;;0.17;100.00;101628.94;4901471;29;20101;-78
2022/10/25 02:18:11;;;;;;;35.43;17.90;;;;;;;0.10;100.00;101631.03;4901541;29;20261;-76
2022/10/25 02:20:40;;;;;;;39.60;18.90;;;;;;;0.06;100.00;101624.25;4887605;29;20276;-77
2022/10/25 02:23:06;;;;;;;43.40;19.30;;;;;;;0.03;100.00;101624.41;4901954;29;20257;-78
2022/10/25 02:25:33;;;;;;;35.77;20.33;;;;;;;0.03;100.00;101629.63;4902216;29;20063;-77
2022/10/25 02:28:02;;;;;;;35.30;23.97;;;;;;;-0.01;100.00;101634.13;4905363;29;20093;-77
2022/10/25 02:30:31;;;;;;;34.20;20.58;;;;;;;-0.03;100.00;101629.91;4904560;29;20276;-78
2022/10/25 02:32:57;;;;;;;41.63;19.42;;;;;;;-0.08;100.00;101634.50;4904502;29;20036;-78
2022/10/25 02:35:22;;;;;;;45.10;20.53;;;;;;;-0.14;100.00;101616.47;4903288;29;20056;-77
2022/10/25 02:37:48;;;;;;;39.47;22.03;;;;;;;-0.16;100.00;101621.78;4902832;29;20303;-76
2022/10/25 02:40:13;;;;;;;37.70;20.13;;;;;;;-0.25;100.00;101618.78;4902005;29;20497;-76
2022/10/25 02:42:39;;;;;;;43.47;19.97;;;;;;;-0.25;100.00;101616.16;4885037;29;20031;-76
2022/10/25 02:45:05;;;;;;;37.13;19.97;;;;;;;-0.24;100.00;101626.56;4902464;29;20040;-76
2022/10/25 02:47:31;;;;;;;34.37;20.03;;;;;;;-0.29;100.00;101627.66;4885117;29;20353;-77
2022/10/25 02:49:57;;;;;;;36.50;18.97;;;;;;;-0.29;100.00;101628.50;4900901;29;20268;-77
2022/10/25 02:52:22;;;;;;;35.93;21.23;;;;;;;-0.45;100.00;101604.84;4900193;29;20028;-76
2022/10/25 02:54:47;;;;;;;32.53;18.97;;;;;;;-0.35;100.00;101621.81;4883079;29;20079;-78
2022/10/25 02:57:13;;;;;;;32.77;20.27;;;;;;;-0.35;100.00;101620.97;4900306;29;20056;-77
2022/10/25 02:59:38;;;;;;;38.63;22.43;;;;;;;-0.37;100.00;101617.56;4901113;29;20043;-77
2022/10/25 03:02:04;;;;;;;40.60;20.93;;;;;;;-0.42;100.00;101617.78;4900967;29;20024;-78
2022/10/25 03:04:29;;;;;;;35.30;19.87;;;;;;;-0.49;100.00;101605.91;4903623;29;20033;-76
2022/10/25 03:06:56;;;;;;;33.60;19.53;;;;;;;-0.45;100.00;101617.94;4885266;29;20032;-78
2022/10/25 03:09:22;;;;;;;33.07;20.40;;;;;;;-0.46;100.00;101621.47;4899804;29;20379;-77
2022/10/25 03:11:48;;;;;;;35.93;19.93;;;;;;;-0.47;100.00;101627.63;4898802;29;20333;-78
2022/10/25 03:14:15;;;;;;;36.03;19.33;;;;;;;-0.65;100.00;101599.69;4897630;29;20048;-77
2022/10/25 03:16:41;;;;;;;38.10;22.23;;;;;;;-0.52;100.00;101626.16;4898327;29;20317;-76
2022/10/25 03:19:06;;;;;;;39.03;23.00;;;;;;;-0.59;100.00;101616.84;4866795;29;20301;-77
2022/10/25 03:21:32;;;;;;;35.77;21.07;;;;;;;-0.59;100.00;101616.84;4881851;29;20033;-77
2022/10/25 03:23:58;;;;;;;33.83;20.40;;;;;;;-0.76;100.00;101588.88;4899020;29;20048;-78
2022/10/25 03:26:23;;;;;;;32.97;20.97;;;;;;;-0.59;100.00;101624.69;4898688;29;20167;-78
2022/10/25 03:28:49;;;;;;;42.47;21.73;;;;;;;-0.64;100.00;101620.53;4897882;29;20040;-78
2022/10/25 03:31:16;;;;;;;43.63;21.83;;;;;;;-0.65;100.00;101612.75;4897770;29;20033;-77
2022/10/25 03:33:42;;;;;;;35.27;19.87;;;;;;;-0.72;100.00;101599.13;4898651;29;20123;-78
2022/10/25 03:36:09;;;;;;;34.57;19.83;;;;;;;-0.78;100.00;101588.09;4899225;29;20780;-77
2022/10/25 03:38:34;;;;;;;36.00;20.70;;;;;;;-0.68;100.00;101615.50;4898840;29;20279;-78
2022/10/25 03:41:00;;;;;;;43.47;23.33;;;;;;;-0.96;100.00;101569.69;4898313;29;20265;-78
2022/10/25 03:43:25;;;;;;;36.33;21.40;;;;;;;-0.73;100.00;101607.88;4881920;29;20036;-78
2022/10/25 03:49:32;;;;;;;38.33;20.30;;;;;;;-0.79;100.00;101591.63;4898195;29;20056;-76
2022/10/25 03:51:57;;;;;;;42.37;23.63;;;;;;;-0.85;100.00;101581.44;4898927;29;20257;-76
2022/10/25 03:54:23;;;;;;;42.17;23.27;;;;;;;-0.79;100.00;101587.25;4883259;29;20131;-77
2022/10/25 03:56:48;;;;;;;34.50;20.00;;;;;;;-0.81;100.00;101589.09;4899019;29;20036;-77
2022/10/25 03:59:22;;;;;;;43.10;22.70;;;;;;;-0.84;100.00;101593.59;4899495;29;20041;-77
2022/10/25 04:01:49;;;;;;;38.23;22.47;;;;;;;-0.91;100.00;101585.16;4898675;29;20044;-79
2022/10/25 04:04:14;;;;;;;39.13;21.77;;;;;;;-0.87;100.00;101588.50;4898640;29;20260;-77
2022/10/25 04:06:40;;;;;;;39.40;20.97;;;;;;;-0.91;100.00;101589.56;4898891;29;20028;-77
2022/10/25 04:09:06;;;;;;;40.70;23.53;;;;;;;-0.89;100.00;101591.19;4882473;29;20036;-76
2022/10/25 04:11:32;;;;;;;46.67;22.60;;;;;;;-0.89;100.00;101585.94;4898791;29;20024;-79
2022/10/25 04:13:57;;;;;;;41.67;22.90;;;;;;;-0.88;100.00;101592.88;4898789;29;20303;-78
2022/10/25 04:16:24;;;;;;;36.10;24.53;;;;;;;-0.88;100.00;101592.03;4880891;29;20116;-78
2022/10/25 04:18:52;;;;;;;39.03;21.33;;;;;;;-1.06;100.00;101568.41;4903286;29;20123;-79
2022/10/25 04:21:18;;;;;;;39.00;22.90;;;;;;;-0.96;100.00;101580.16;4907593;29;20265;-79
2022/10/25 04:23:44;;;;;;;43.10;22.70;;;;;;;-0.95;100.00;101588.84;4903850;29;20261;-78
2022/10/25 04:26:09;;;;;;;45.77;21.67;;;;;;;-0.95;100.00;101591.47;4907651;29;20297;-79
2022/10/25 04:28:35;;;;;;;46.83;24.13;;;;;;;-0.95;100.00;101597.53;4908345;29;20535;-77
2022/10/25 04:31:02;;;;;;;48.03;20.63;;;;;;;-1.00;100.00;101585.59;4909866;29;20029;-80
2022/10/25 04:33:29;;;;;;;37.60;22.93;;;;;;;-0.97;100.00;101582.84;4907780;29;20020;-81
2022/10/25 04:35:55;;;;;;;38.43;21.87;;;;;;;-1.01;100.00;101584.75;4911256;29;20266;-76
2022/10/25 04:38:22;;;;;;;36.57;21.53;;;;;;;-1.00;100.00;101582.97;4912911;29;20346;-76
2022/10/25 04:40:58;;;;;;;32.37;19.77;;;;;;;-1.01;100.00;101587.34;4911495;29;20256;-74
2022/10/25 04:43:26;;;;;;;43.37;21.53;;;;;;;-1.03;100.00;101583.13;4910278;29;20320;-80
2022/10/25 04:45:53;;;;;;;31.90;20.43;;;;;;;-1.15;100.00;101568.00;4910850;29;20279;-79
2022/10/25 04:48:21;;;;;;;35.67;20.70;;;;;;;-0.99;100.00;101590.75;4901584;29;20280;-76
2022/10/25 04:50:47;;;;;;;43.03;22.95;;;;;;;-1.02;100.00;101592.66;4884394;29;20663;-78
2022/10/25 04:53:13;;;;;;;46.13;22.97;;;;;;;-1.02;100.00;101596.13;4900376;29;20036;-78
2022/10/25 04:55:38;;;;;;;43.57;24.63;;;;;;;-1.05;100.00;101584.94;4900937;29;20036;-77
2022/10/25 04:58:06;;;;;;;40.23;22.40;;;;;;;-1.03;100.00;101597.03;4900790;29;20036;-78
2022/10/25 05:00:32;;;;;;;50.03;23.40;;;;;;;-1.04;100.00;101592.72;4900286;29;20024;-77
2022/10/25 05:02:57;;;;;;;41.30;21.50;;;;;;;-1.03;100.00;101590.97;4900499;29;20043;-78
2022/10/25 05:05:24;;;;;;;49.37;21.97;;;;;;;-1.08;100.00;101593.78;4900454;29;20032;-78
2022/10/25 05:07:50;;;;;;;45.40;25.03;;;;;;;-1.12;100.00;101579.16;4899831;29;20039;-78
2022/10/25 05:10:16;;;;;;;39.07;22.20;;;;;;;-1.06;100.00;101593.72;4867615;29;20770;-78
2022/10/25 05:12:46;;;;;;;32.73;21.47;;;;;;;-1.11;100.00;101580.84;4899887;29;20131;-77
2022/10/25 05:15:12;;;;;;;44.93;22.30;;;;;;;-1.03;100.00;101594.41;4899845;29;20301;-78
2022/10/25 05:17:37;;;;;;;52.87;27.67;;;;;;;-1.11;100.00;101580.00;4900694;29;20334;-79
2022/10/25 05:20:03;;;;;;;38.20;19.70;;;;;;;-1.06;100.00;101586.72;4899906;29;20036;-78
2022/10/25 05:22:30;;;;;;;40.43;22.87;;;;;;;-1.03;100.00;101599.66;4883515;29;20043;-78
2022/10/25 05:24:55;;;;;;;43.87;22.40;;;;;;;-1.02;100.00;101595.28;4900443;29;20253;-77
2022/10/25 05:27:21;;;;;;;53.63;24.67;;;;;;;-0.99;100.00;101600.34;4883766;29;20261;-80
2022/10/25 05:29:46;;;;;;;34.73;19.80;;;;;;;-1.01;100.00;101595.19;4882765;29;20494;-77
2022/10/25 05:32:12;;;;;;;47.67;24.10;;;;;;;-1.00;100.00;101596.06;4899625;29;20073;-76
2022/10/25 05:34:37;;;;;;;43.47;23.37;;;;;;;-1.07;100.00;101584.16;4900348;29;20052;-78
2022/10/25 05:37:04;;;;;;;43.77;22.10;;;;;;;-1.13;100.00;101577.47;4900821;29;20084;-80
2022/10/25 05:39:29;;;;;;;41.37;23.10;;;;;;;-1.06;100.00;101584.09;4884902;29;20690;-80
2022/10/25 05:41:55;;;;;;;39.43;20.87;;;;;;;-0.99;100.00;101600.34;4868362;29;20429;-80
2022/10/25 05:44:21;;;;;;;50.70;25.30;;;;;;;-0.99;100.00;101598.59;4900348;29;20140;-78
2022/10/25 05:46:46;;;;;;;33.97;20.87;;;;;;;-0.96;100.00;101595.00;4901608;29;20033;-75
2022/10/25 05:49:12;;;;;;;44.67;22.50;;;;;;;-0.94;100.00;101587.91;4900768;29;20496;-77
2022/10/25 05:51:38;;;;;;;40.67;22.90;;;;;;;-0.90;100.00;101599.94;4884525;29;20081;-76
2022/10/25 05:54:10;;;;;;;41.40;23.80;;;;;;;-0.96;100.00;101579.31;4868432;29;20032;-79
2022/10/25 05:56:37;;;;;;;40.60;23.73;;;;;;;-0.84;100.00;101594.47;4899197;29;20745;-75
2022/10/25 05:59:10;;;;;;;46.53;22.53;;;;;;;-0.86;100.00;101587.59;4909945;29;20301;-75
2022/10/25 06:01:38;;;;;;;34.67;20.43;;;;;;;-0.92;100.00;101575.63;4902576;29;20278;-78
2022/10/25 06:04:04;;;;;;;45.23;22.33;;;;;;;-0.78;100.00;101598.56;4888948;29;20328;-75
2022/10/25 06:06:30;;;;;;;42.00;22.37;;;;;;;-0.74;100.00;101594.88;4908004;29;20268;-78
2022/10/25 06:08:57;;;;;;;44.33;24.30;;;;;;;-0.75;100.00;101603.66;4908358;29;20261;-76
2022/10/25 06:11:23;;;;;;;41.23;25.83;;;;;;;-0.85;100.00;101584.91;4906086;29;20028;-76
2022/10/25 06:13:51;;;;;;;43.13;21.37;;;;;;;-0.80;100.00;101600.41;4883876;29;20281;-75
2022/10/25 06:16:47;;;;;;;45.37;21.83;;;;;;;-0.83;100.00;101590.06;4900775;29;20041;-76
2022/10/25 06:19:13;;;;;;;44.17;20.37;;;;;;;-0.91;100.00;101571.25;4899084;29;20338;-77
2022/10/25 06:21:38;;;;;;;46.97;20.87;;;;;;;-0.71;100.00;101594.72;4908017;29;20264;-75
2022/10/25 06:24:04;;;;;;;48.00;22.27;;;;;;;-0.71;100.00;101587.72;4918267;29;20036;-76
2022/10/25 06:26:30;;;;;;;48.97;26.17;;;;;;;-0.65;100.00;101590.06;4888377;29;20021;-76
2022/10/25 06:28:59;;;;;;;45.17;24.40;;;;;;;-0.63;100.00;101590.84;4919441;29;20025;-76
2022/10/25 06:31:25;;;;;;;42.38;22.55;;;;;;;-0.67;100.00;101589.28;4901456;29;20268;-76
2022/10/25 06:33:50;;;;;;;44.37;21.73;;;;;;;-0.55;100.00;101593.13;4898197;29;20037;-76
2022/10/25 06:36:18;;;;;;;47.27;21.67;;;;;;;-0.42;100.00;101601.22;4881802;29;20049;-77
2022/10/25 06:39:09;;;;;;;44.77;22.97;;;;;;;-0.34;100.00;101610.41;4898361;29;20071;-76
2022/10/25 06:41:35;;;;;;;39.63;22.73;;;;;;;-0.26;100.00;101611.84;4881391;29;20765;-76
2022/10/25 06:44:01;;;;;;;44.27;22.93;;;;;;;-0.21;100.00;101604.63;4898318;29;20501;-76
2022/10/25 06:46:29;;;;;;;51.47;23.20;;;;;;;-0.26;100.00;101596.13;4881633;29;20032;-77
2022/10/25 06:48:56;;;;;;;45.78;22.92;;;;;;;-0.45;100.00;101569.97;4898806;29;20032;-76
2022/10/25 06:51:23;;;;;;;50.67;23.57;;;;;;;-0.14;100.00;101616.47;4898945;29;20040;-76
2022/10/25 06:53:59;;;;;;;43.57;22.23;;;;;;;-0.08;100.00;101606.56;4898783;29;20313;-77
2022/10/25 06:56:25;;;;;;;50.20;23.17;;;;;;;-0.15;100.00;101593.84;4898705;29;20299;-75
2022/10/25 06:58:51;;;;;;;42.33;23.83;;;;;;;0.03;99.55;101608.69;4898308;29;20589;-76
2022/10/25 07:01:19;;;;;;;49.27;23.83;;;;;;;0.06;99.57;101612.91;4898439;29;20317;-76
2022/10/25 07:03:45;;;;;;;49.43;22.47;;;;;;;0.12;99.31;101612.63;4881945;29;20316;-75
2022/10/25 07:06:20;;;;;;;47.83;24.20;;;;;;;0.18;99.33;101618.38;4898461;29;20271;-76
2022/10/25 07:08:46;;;;;;;45.90;21.77;;;;;;;0.22;98.67;101614.69;4898374;29;20395;-75
2022/10/25 07:11:18;;;;;;;59.73;23.17;;;;;;;0.31;98.46;101618.66;4898167;29;20801;-75
2022/10/25 07:13:46;;;;;;;33.30;19.80;;;;;;;0.39;98.44;101620.88;4880338;29;20285;-76
2022/10/25 07:16:14;;;;;;;41.97;20.97;;;;;;;0.42;98.66;101620.72;4898009;29;20308;-75
2022/10/25 07:18:40;;;;;;;44.30;20.17;;;;;;;0.46;97.56;101624.88;4881388;29;20352;-75
2022/10/25 07:21:09;;;;;;;39.97;19.63;;;;;;;0.45;98.19;101612.72;4897612;29;20075;-76
2022/10/25 07:23:40;;;;;;;35.60;19.00;;;;;;;0.52;97.45;101617.56;4897652;29;20265;-76
2022/10/25 07:26:12;;;;;;;50.43;19.83;;;;;;;0.64;97.38;101629.22;4897810;29;20344;-75
2022/10/25 07:28:38;;;;;;;49.07;19.23;;;;;;;0.65;97.48;101623.03;4898469;29;20280;-75
2022/10/25 07:31:04;;;;;;;41.93;18.03;;;;;;;0.74;97.16;101627.81;4897969;29;20272;-77
2022/10/25 07:33:30;;;;;;;41.73;18.33;;;;;;;0.77;96.25;101622.41;4881211;29;20261;-75
2022/10/25 07:35:56;;;;;;;39.00;16.87;;;;;;;0.84;96.07;101621.16;4897377;29;20288;-75
2022/10/25 07:38:22;;;;;;;45.63;19.50;;;;;;;0.91;95.80;101622.56;4897642;29;20273;-77
2022/10/25 07:40:53;;;;;;;40.30;18.13;;;;;;;0.93;95.75;101612.84;4897714;29;20037;-75
2022/10/25 07:43:18;;;;;;;35.33;18.90;;;;;;;1.01;95.21;101622.06;4898289;29;20148;-77
2022/10/25 07:45:44;;;;;;;44.30;18.00;;;;;;;0.81;94.85;101584.59;4897178;29;20322;-76
2022/10/25 07:48:10;;;;;;;39.90;18.00;;;;;;;0.97;94.63;101602.19;4898274;29;20025;-76
2022/10/25 07:50:35;;;;;;;38.40;16.93;;;;;;;1.15;94.59;101611.69;4881446;29;20362;-76
2022/10/25 07:53:01;;;;;;;40.67;16.57;;;;;;;1.18;94.18;101616.78;4898681;29;20085;-76
2022/10/25 07:55:32;;;;;;;32.10;16.27;;;;;;;1.25;93.97;101618.16;4901495;29;20106;-77
2022/10/25 08:01:40;;;;;;;25.77;13.67;;;;;;;1.45;93.08;101625.81;4883510;29;20288;-75
2022/10/25 08:04:06;;;;;;;32.23;14.13;;;;;;;1.48;92.59;101612.53;4909268;29;20350;-76
2022/10/25 08:06:31;;;;;;;23.93;13.10;;;;;;;1.47;92.36;101600.31;4907609;29;20177;-75
2022/10/25 08:12:38;;;;;;;25.00;13.23;;;;;;;1.59;91.10;101598.78;4908224;29;20089;-75
2022/10/25 08:15:05;;;;;;;19.23;11.00;;;;;;;1.80;91.73;101620.41;4908117;29;20968;-75
2022/10/25 08:17:31;;;;;;;21.43;10.70;;;;;;;1.82;91.33;101610.66;4912535;29;20360;-76
2022/10/25 08:19:57;;;;;;;20.17;10.13;;;;;;;1.89;91.31;101613.78;4894091;29;20270;-77
2022/10/25 08:22:26;;;;;;;27.67;13.00;;;;;;;1.89;90.53;101608.53;4869304;29;20892;-77
2022/10/25 08:24:52;;;;;;;;;;;;;;;1.98;90.59;101614.09;4868306;29;20028;-79
2022/10/25 08:27:17;;;;;;;25.47;10.03;;;;;;;2.01;89.63;101607.81;4884639;29;19918;-76
2022/10/25 08:29:46;;;;;;;23.80;11.67;;;;;;;2.05;90.25;101620.72;4900825;29;20457;-77
2022/10/25 08:32:47;;;;;;;25.07;11.03;;;;;;;1.80;89.42;101566.09;4867357;29;20067;-76
2022/10/25 08:35:16;;;;;;;18.95;9.02;;;;;;;1.87;88.97;101553.44;4887817;29;20340;-77
2022/10/25 08:37:42;;;;;;;;;;;;;;;2.25;88.85;101616.09;4884344;29;20135;-76
2022/10/25 08:40:53;;;;;;;25.07;9.13;;;;;;;2.30;87.74;101617.50;4867366;29;19955;-78
2022/10/25 08:43:27;;;;;;;26.67;10.47;;;;;;;2.35;88.29;101617.25;4883095;29;20041;-77
2022/10/25 08:45:58;;;;;;;29.90;9.87;;;;;;;2.37;88.27;101615.41;4883525;29;20617;-77
2022/10/25 08:48:35;;;;;;;30.53;9.30;;;;;;;2.38;88.16;101603.94;4888772;29;20261;-75
2022/10/25 08:51:27;;;;;;;19.27;8.53;;;;;;;2.35;87.93;101594.47;4892400;29;20275;-75
2022/10/25 09:04:05;;;;;;;16.70;7.83;;;;;;;2.55;86.30;101571.38;4898956;29;20591;-77
2022/10/25 09:06:49;;;;;;;15.90;7.63;;;;;;;2.62;85.10;101581.47;4865044;29;20292;-78
2022/10/25 09:09:48;;;;;;;15.00;7.97;;;;;;;2.80;85.17;101603.16;4882408;29;20060;-77
2022/10/25 09:12:35;;;;;;;21.27;9.53;;;;;;;2.75;85.17;101579.78;4883955;29;20268;-75
2022/10/25 09:18:56;;;;;;;15.93;9.30;;;;;;;2.69;84.17;101555.63;4910766;29;20339;-75
2022/10/25 09:21:34;;;;;;;13.13;8.50;;;;;;;2.97;84.47;101594.28;4885179;29;20265;-76
2022/10/25 09:24:27;;;;;;;22.60;8.82;;;;;;;3.01;83.89;101594.00;4906227;29;20265;-75
2022/10/25 09:27:27;;;;;;;15.87;8.83;;;;;;;2.66;84.21;101526.91;4905224;29;20063;-77
2022/10/25 09:29:59;;;;;;;17.10;9.63;;;;;;;3.07;83.20;101585.72;4907335;29;20346;-76
2022/10/25 09:40:00;;;;;;;17.23;8.17;;;;;;;3.08;81.66;101589.19;4880109;29;20705;-77
2022/10/25 09:42:40;;;;;;;18.20;9.37;;;;;;;2.71;81.56;101525.66;4879912;29;20284;-77
2022/10/25 09:45:20;;;;;;;16.63;8.00;;;;;;;3.03;81.58;101567.56;4880682;29;20269;-76
2022/10/25 09:48:09;;;;;;;11.57;8.27;;;;;;;3.08;81.66;101568.13;4880152;29;20277;-76
2022/10/25 09:51:16;;;;;;;17.47;8.87;;;;;;;3.07;80.86;101561.19;4886797;29;20304;-78
2022/10/25 09:53:53;;;;;;;11.33;7.07;;;;;;;3.02;80.84;101555.34;4861639;29;20273;-77
2022/10/25 09:56:19;;;;;;;18.67;7.97;;;;;;;3.03;80.62;101563.16;4883529;29;20293;-75
2022/10/25 09:58:46;;;;;;;16.43;6.83;;;;;;;3.00;79.53;101555.47;4881846;29;20297;-77
2022/10/25 10:01:38;;;;;;;11.40;6.20;;;;;;;2.95;78.70;101548.78;4880188;29;20155;-76
2022/10/25 10:04:32;;;;;;;8.93;5.07;;;;;;;2.98;78.43;101559.13;4894109;29;20694;-75
2022/10/25 10:07:04;;;;;;;12.53;4.93;;;;;;;2.89;78.25;101543.88;4898675;29;20372;-75
2022/10/25 10:09:31;;;;;;;10.57;4.50;;;;;;;2.91;78.65;101555.19;4899022;29;20269;-76
2022/10/25 10:11:59;;;;;;;7.87;3.93;;;;;;;2.91;77.64;101555.19;4897760;29;20759;-76
2022/10/25 10:18:39;;;;;;;8.85;4.00;;;;;;;2.89;78.70;101549.13;4900509;29;20540;-80
2022/10/25 10:21:36;;;;;;;7.90;4.47;;;;;;;2.90;78.98;101553.50;4878933;29;20473;-78
2022/10/25 10:24:04;;;;;;;7.60;5.80;;;;;;;2.70;80.34;101520.50;4882163;29;20784;-76
2022/10/25 10:26:46;;;;;;;8.83;4.67;;;;;;;2.96;80.01;101556.59;4884567;29;20261;-76
2022/10/25 10:29:33;;;;;;;10.40;5.30;;;;;;;2.86;81.01;101544.06;4884626;29;20360;-76
2022/10/25 10:32:01;;;;;;;7.90;5.13;;;;;;;2.83;81.14;101549.53;4899628;29;20273;-76
2022/10/25 10:34:55;;;;;;;6.68;4.85;;;;;;;2.81;82.03;101554.88;4898526;29;20297;-75
2022/10/25 10:37:26;;;;;;;12.87;5.47;;;;;;;2.74;80.95;101537.78;4879926;29;20028;-76
2022/10/25 10:40:21;;;;;;;13.73;6.13;;;;;;;2.80;80.02;101546.16;4898660;29;20311;-77
2022/10/25 10:42:47;;;;;;;11.87;6.00;;;;;;;3.03;79.22;101547.38;4898995;29;20308;-76
2022/10/25 10:45:19;;;;;;;9.80;5.10;;;;;;;3.27;77.80;101541.53;4899615;29;20336;-75
2022/10/25 10:47:56;;;;;;;13.50;5.60;;;;;;;3.44;77.63;101541.28;4899936;29;20421;-76
2022/10/25 10:50:21;;;;;;;7.93;3.53;;;;;;;3.71;76.94;101533.41;4905700;29;20277;-75
2022/10/25 10:53:28;;;;;;;10.47;5.43;;;;;;;3.87;75.67;101544.63;4900993;29;20267;-76
2022/10/25 10:56:15;;;;;;;8.67;4.07;;;;;;;3.71;76.48;101528.13;4842352;29;20068;-77
2022/10/25 10:58:48;;;;;;;6.43;4.00;;;;;;;3.57;77.02;101541.34;4829082;29;20315;-75
2022/10/25 11:01:27;;;;;;;9.00;4.00;;;;;;;3.48;77.24;101544.59;4880497;29;20792;-75
2022/10/25 11:03:56;;;;;;;20.63;7.00;;;;;;;3.40;77.63;101534.53;4898376;29;20590;-76
2022/10/25 11:06:28;;;;;;;;;;;;;;;3.40;77.77;101548.53;4898684;29;20617;-75
2022/10/25 11:21:10;;;;;;;;;;;;;;;;;;;;;
2022/10/25 11:24:57;;;;;;;5.60;3.20;;;;;;;3.65;77.60;101534.66;4896244;29;20304;-79
2022/10/25 11:31:25;;;;;;;5.33;3.30;;;;;;;3.77;76.47;101500.56;4847354;29;20723;-76
2022/10/25 11:34:05;;;;;;;7.27;3.10;;;;;;;3.88;76.83;101519.13;4845637;29;20259;-77
2022/10/25 11:36:37;;;;;;;10.13;3.27;;;;;;;3.75;77.06;101519.06;4902883;29;20281;-76
2022/10/25 11:39:03;;;;;;;6.37;3.43;;;;;;;3.72;77.63;101524.53;4904969;29;20790;-77
2022/10/25 11:45:45;;;;;;;7.23;4.30;;;;;;;3.50;77.26;101503.19;4885066;29;20091;-76
2022/10/25 11:48:30;;;;;;;4.43;3.33;;;;;;;3.59;78.06;101526.31;4901591;29;20288;-76
2022/10/25 11:51:27;;;;;;;8.03;3.63;;;;;;;3.61;77.44;101522.63;4901665;29;20257;-74
2022/10/25 11:54:20;;;;;;;7.53;3.70;;;;;;;3.63;77.78;101518.09;4901520;29;20265;-76
2022/10/25 11:57:21;;;;;;;8.53;4.57;;;;;;;3.67;78.42;101518.75;4899677;29;20271;-75
2022/10/25 11:59:56;;;;;;;11.83;4.33;;;;;;;3.67;77.38;101516.09;4901016;29;20285;-76
2022/10/25 12:02:31;;;;;;;7.70;3.20;;;;;;;3.66;75.18;101509.16;4901656;29;20288;-74
2022/10/25 12:05:24;;;;;;;4.97;3.00;;;;;;;3.63;74.91;101514.63;4901654;29;20283;-75
2022/10/25 12:07:49;;;;;;;6.30;3.30;;;;;;;3.66;75.89;101515.25;4901471;29;20745;-76
2022/10/25 12:10:20;;;;;;;4.87;3.27;;;;;;;3.65;74.26;101512.72;4901255;29;20268;-76
2022/10/25 12:13:18;;;;;;;4.07;3.03;;;;;;;3.70;75.65;101505.38;4901480;29;20072;-75
2022/10/25 12:15:47;;;;;;;6.83;3.33;;;;;;;3.71;75.05;101512.31;4882062;29;20387;-74
2022/10/25 12:18:28;;;;;;;5.17;3.30;;;;;;;3.74;74.87;101507.69;4884752;29;20360;-75
2022/10/25 12:20:56;;;;;;;9.93;3.20;;;;;;;3.71;74.69;101501.78;4900975;29;20357;-76
2022/10/25 12:23:24;;;;;;;6.13;4.10;;;;;;;3.78;74.98;101512.78;4901199;29;20253;-75
2022/10/25 12:25:55;;;;;;;4.63;3.47;;;;;;;3.74;75.20;101507.69;4901705;29;20265;-76
2022/10/25 12:28:28;;;;;;;8.57;3.07;;;;;;;3.77;74.58;101509.31;4901727;29;20041;-75
2022/10/25 12:31:30;;;;;;;6.70;3.57;;;;;;;3.76;74.74;101512.88;4884303;29;20367;-76
2022/10/25 12:34:07;;;;;;;8.23;3.33;;;;;;;3.77;73.92;101506.69;4876866;29;20862;-74